Aktuální počasí v Česku a ve světě - METAR

Seznam meteostanic umístěných nejčasteji na letišti v ČR a ve světě

Vyhledat místa podle abecedy:
A B C D E F G H I J K L M N O P Q R S T U V W X Y Z

Filtrovat:

ID stanice:
a/nebo
Název místa (fulltext):
 
Místo (ID)Naposledy načteno 
Doksany - Litoměřice (Doksany) 07.08.2020 03:00 UTC Zobrazit data
Místo: Doksany - Litoměřice
Teplota: 15 °C (pocitová: 14.1 °C)
Vítr: 1 m/s z(e) 0°
Počasí: zataženo
Dohlednost: 8 km
Zákl. oblačnosti: N/A
Vlhkost: 100%
Dukovany (Dukovany) 07.08.2020 03:00 UTC Zobrazit data
Místo: Dukovany
Teplota: 16 °C (pocitová: 14 °C)
Vítr: 3 m/s z(e) 340°
Počasí: zataženo
Dohlednost: 5 km
Zákl. oblačnosti: N/A
Vlhkost: 94%
Dakar (GOOY) 07.08.2020 03:00 UTC Zobrazit METAR
GOOY 070300Z 28012KT 9999 SCT011 26/24 Q1014
Damascus (OSDI) 07.08.2020 03:00 UTC Zobrazit METAR
OSDI 070300Z 22012KT CAVOK 20/18 Q1010
Debrecen (LHDC) 07.08.2020 01:45 UTC Zobrazit METAR
LHDC 070145Z AUTO 05009KT CAVOK 19/14 Q1018
Delhi (VIDP) 07.08.2020 03:00 UTC Zobrazit METAR
VIDP 070300Z 10007G17KT 3000 BR SCT030 BKN100 29/25 Q1003 NOSIG
Dhaka (VGZR) Zatím nenačteno  
Diego Garcia (FJDG) 07.08.2020 02:55 UTC Zobrazit METAR
FJDG 070255Z 14012KT 9999 FEW020 FEW080 SCT250 26/22 A2989 RMK SLP119 8/131 T02620223 52020
Djibouti (HDAM) 06.08.2020 15:00 UTC Zobrazit METAR
HDAM 061500Z 31011KT 9999 FEW023 FEW033 BKN133 37/24 Q1005
Dnipropetrovs'k (UKDD) 12.08.2013 14:00 UTC Zobrazit METAR
UKDD 121400Z CAVOK 33/13 Q1012 08090070 NOSIG
Dodoma (HTDO) 07.08.2020 03:00 UTC Zobrazit METAR
HTDO 070300Z 07006KT 9999 SKC 16/14 Q1020 NOSIG
Doha (OTBD) 07.08.2020 03:00 UTC Zobrazit METAR
OTBD 070300Z AUTO 29009KT CAVOK 36/21 Q0995 NOSIG
Dortmund (EDLW) 06.08.2020 19:50 UTC Zobrazit METAR
EDLW 061950Z 05003KT CAVOK 25/10 Q1020
Dresden (EDDC) 07.08.2020 02:50 UTC Zobrazit METAR
EDDC 070250Z 15001KT CAVOK 18/15 Q1022
Dublin (EIDW) 07.08.2020 03:00 UTC Zobrazit METAR
EIDW 070300Z 13005KT 9999 FEW015 SCT090 15/13 Q1015 NOSIG
Dubrovnik (LDDU) 07.08.2020 03:00 UTC Zobrazit METAR
LDDU 070300Z VRB08KT CAVOK 23/12 Q1012 TEMPO 03015G25KT
Dushanbe (UTDD) Zatím nenačteno  
Dusseldorf (EDDL) 07.08.2020 02:50 UTC Zobrazit METAR
EDDL 070250Z 10004KT CAVOK 17/12 Q1019 NOSIG
Dzaoudzi (FMCZ) 07.08.2020 03:00 UTC Zobrazit METAR
FMCZ 070300Z AUTO 00000KT CAVOK 19/18 Q1017 NOSIG
Reklama

Počasí na Váš email

Emaily jsou bez reklamy a bez spamu



Odhlásit newsletter





❤️ Podpořte nás

Napište o nás recenzi na Google
Ohodnoťte nás na Firmy.cz

Pošlete nám finanční podporu - firma nedostala žádné dotace ani podporu z Coronaviru, zato letos platíme vyšší daně.
Další české internetové stránky (nejen) o počasí najdete v katalogu TOPlist - weby o počasí nebo vyhledejte na internetu, co jste tu na 🌞 Slunečnu ⛅ zatím nenašli:
⭐ Přidat Slunečno.cz do oblíbených | 🏠 Nastavit Slunečno.cz jako HOMEPAGE

⬆️ Posunout stránku nahoru ⬆️
Reklama